Time;durP1;ratioP1;P1;durP2;ratioP2;P2;SDS_P1;SDS_P2;PMS_P1;PMS_P2;Temp;Humidity;BMP_temperature;BMP_pressure;BME280_temperature;BME280_humidity;BME280_pressure;Samples;Min_cycle;Max_cycle;Signal;HPM_P1;HPM_P2
2021/05/12 00:02:05;;;;;;;1999.90;999.90;;;;;;;13.94;100.00;-648.84;5118367;28;20501;-37
2021/05/12 00:04:52;;;;;;;1999.90;999.90;;;;;;;14.06;100.00;936.69;5118267;28;20195;-33
2021/05/12 00:07:39;;;;;;;1999.90;999.90;;;;;;;14.14;100.00;-567.19;5118556;28;20341;-35
2021/05/12 00:10:25;;;;;;;1999.90;999.90;;;;;;;14.09;100.00;-3201.41;5118283;28;20611;-33
2021/05/12 00:13:11;;;;;;;1999.90;999.90;;;;;;;13.96;100.00;-4336.13;5118042;28;20242;-37
2021/05/12 00:16:06;;;;;;;1999.90;999.90;;;;;;;14.19;100.00;-1883.28;5118264;28;20291;-34
2021/05/12 00:18:54;;;;;;;1999.90;999.90;;;;;;;14.27;100.00;-4780.78;5118330;28;20408;-33
2021/05/12 00:21:44;;;;;;;1999.90;999.90;;;;;;;14.25;100.00;-8359.44;5118043;28;20218;-35
2021/05/12 00:24:33;;;;;;;1999.90;999.90;;;;;;;14.28;100.00;-9989.81;5118054;28;20615;-35
2021/05/12 00:27:20;;;;;;;1999.90;999.90;;;;;;;14.20;100.00;-11458.69;5117888;28;20280;-35
2021/05/12 00:30:09;;;;;;;1999.90;999.90;;;;;;;14.20;100.00;-10828.81;5118056;28;20329;-34
2021/05/12 00:32:55;;;;;;;1999.90;999.90;;;;;;;14.45;100.00;-12216.53;5117870;28;20486;-36
2021/05/12 00:35:42;;;;;;;1999.90;999.90;;;;;;;14.38;100.00;-12708.59;5117746;28;20199;-36
2021/05/12 00:38:28;;;;;;;1999.90;999.90;;;;;;;14.61;100.00;-14000.09;5117859;28;20295;-36
2021/05/12 00:41:14;;;;;;;1999.90;999.90;;;;;;;14.30;100.00;-14921.78;5117314;28;20236;-36
2021/05/12 00:44:00;;;;;;;1999.90;999.90;;;;;;;14.65;100.00;-14785.03;5118030;28;20269;-33
2021/05/12 00:46:48;;;;;;;1999.90;999.90;;;;;;;14.39;100.00;-15431.84;5117532;28;20645;-34
2021/05/12 00:49:35;;;;;;;1999.90;999.90;;;;;;;14.24;100.00;-15966.75;5117657;28;20504;-36
2021/05/12 00:52:22;;;;;;;1999.90;999.90;;;;;;;14.51;100.00;-12657.66;5117909;28;20596;-34
2021/05/12 00:55:09;;;;;;;1999.90;999.90;;;;;;;14.72;100.00;-15749.91;5117582;28;20711;-32
2021/05/12 00:57:56;;;;;;;1999.90;999.90;;;;;;;14.32;100.00;-17509.53;5117542;28;20189;-34
2021/05/12 01:00:42;;;;;;;1999.90;999.90;;;;;;;14.38;100.00;-15820.84;5117592;28;20202;-37
2021/05/12 01:03:28;;;;;;;1999.90;999.90;;;;;;;14.50;100.00;-15641.47;5117813;28;20478;-35
2021/05/12 01:06:26;;;;;;;1999.90;999.90;;;;;;;14.50;100.00;-17276.59;5117448;28;20194;-34
2021/05/12 01:09:13;;;;;;;1999.90;999.90;;;;;;;14.56;100.00;-17427.19;5117506;28;20198;-34
2021/05/12 01:12:01;;;;;;;1999.90;999.90;;;;;;;14.22;100.00;-17431.22;5117366;28;20271;-34
2021/05/12 01:14:51;;;;;;;1999.90;999.90;;;;;;;14.31;100.00;-16802.00;5117463;28;20419;-33
2021/05/12 01:17:37;;;;;;;1999.90;999.90;;;;;;;14.02;100.00;-17030.03;5117193;28;20694;-36
2021/05/12 01:20:25;;;;;;;1999.90;999.90;;;;;;;13.97;100.00;-14983.13;5117582;28;20595;-35
2021/05/12 01:23:13;;;;;;;1999.90;999.90;;;;;;;13.75;100.00;-11762.69;5117546;28;20604;-36
2021/05/12 01:26:01;;;;;;;1999.90;999.90;;;;;;;13.75;100.00;-8210.25;5117150;28;20202;-36
2021/05/12 01:28:49;;;;;;;1999.90;999.90;;;;;;;13.96;100.00;-5946.81;5117092;28;20468;-36
2021/05/12 01:31:38;;;;;;;1999.90;999.90;;;;;;;14.02;100.00;-7190.31;5117216;28;20198;-36
2021/05/12 01:34:24;;;;;;;1999.90;999.90;;;;;;;13.96;100.00;-8404.56;5117346;28;20329;-36
2021/05/12 01:37:11;;;;;;;1999.90;999.90;;;;;;;14.16;100.00;-7887.69;5117369;28;20202;-43
2021/05/12 01:40:04;;;;;;;1999.90;999.90;;;;;;;13.92;100.00;-11027.16;5117408;28;20237;-36
2021/05/12 01:42:50;;;;;;;1999.90;999.90;;;;;;;13.89;100.00;-10986.25;5116992;28;20308;-34
2021/05/12 01:45:36;;;;;;;1999.90;999.90;;;;;;;13.71;100.00;-12133.50;5117171;28;20198;-36
2021/05/12 01:48:23;;;;;;;1999.90;999.90;;;;;;;14.09;100.00;-10387.19;5117104;28;20213;-36
2021/05/12 01:51:11;;;;;;;1999.90;999.90;;;;;;;13.90;100.00;-11016.66;5116848;28;20292;-35
2021/05/12 01:53:57;;;;;;;1999.90;999.90;;;;;;;13.98;100.00;-9826.69;5116346;28;20489;-35
2021/05/12 01:56:44;;;;;;;1999.90;999.90;;;;;;;13.95;100.00;-11973.16;5116824;28;20333;-39
2021/05/12 01:59:30;;;;;;;1999.90;999.90;;;;;;;14.05;100.00;-13104.72;5118415;28;20280;-32
2021/05/12 02:02:16;;;;;;;1999.90;999.90;;;;;;;13.97;100.00;-13302.94;5120886;28;20203;-35
2021/05/12 02:05:06;;;;;;;1999.90;999.90;;;;;;;14.01;100.00;-13455.41;5120499;28;20186;-33
2021/05/12 02:07:53;;;;;;;1999.90;999.90;;;;;;;13.48;100.00;-12344.41;5120947;28;20290;-38
2021/05/12 02:10:42;;;;;;;1999.90;999.90;;;;;;;13.76;100.00;-6993.34;5120572;28;20195;-34
2021/05/12 02:13:30;;;;;;;1999.90;999.90;;;;;;;13.75;100.00;-6229.03;5120437;28;20389;-33
2021/05/12 02:16:16;;;;;;;1999.90;999.90;;;;;;;13.48;100.00;-5341.63;5120611;28;20477;-36
2021/05/12 02:19:03;;;;;;;1999.90;999.90;;;;;;;13.59;100.00;-2916.88;5120419;28;20198;-37
2021/05/12 02:21:50;;;;;;;1999.90;999.90;;;;;;;13.84;100.00;-2785.47;5120737;28;20296;-36
2021/05/12 02:24:36;;;;;;;1999.90;999.90;;;;;;;13.86;100.00;-6824.53;5120565;28;20278;-36
2021/05/12 02:27:22;;;;;;;1999.90;999.90;;;;;;;13.87;100.00;-10166.69;5120489;28;20198;-34
2021/05/12 02:30:11;;;;;;;1999.90;999.90;;;;;;;14.04;100.00;-12126.25;5120182;28;20240;-36
2021/05/12 02:32:58;;;;;;;1999.90;999.90;;;;;;;14.12;100.00;-15395.63;5120291;28;20203;-35
2021/05/12 02:35:48;;;;;;;1999.90;999.90;;;;;;;14.29;100.00;-17175.38;5120203;28;20249;-34
2021/05/12 02:38:35;;;;;;;1999.90;999.90;;;;;;;13.98;100.00;-18280.38;5120226;28;20202;-33
2021/05/12 02:41:21;;;;;;;1999.90;999.90;;;;;;;13.68;100.00;-18272.50;5120327;28;20210;-35
2021/05/12 02:44:07;;;;;;;1999.90;999.90;;;;;;;13.57;100.00;-17478.13;5119868;28;20260;-35
2021/05/12 02:46:54;;;;;;;1999.90;999.90;;;;;;;13.44;100.00;-15262.31;5119863;28;20202;-36
2021/05/12 02:49:44;;;;;;;1999.90;999.90;;;;;;;14.01;100.00;-13988.63;5120242;28;20202;-34
2021/05/12 02:52:30;;;;;;;1999.90;999.90;;;;;;;13.90;100.00;-17423.28;5120410;28;20261;-37
2021/05/12 02:55:20;;;;;;;1999.90;999.90;;;;;;;14.05;100.00;-18265.34;5119645;28;20238;-36
2021/05/12 02:58:08;;;;;;;1999.90;999.90;;;;;;;13.59;100.00;-18270.09;5120140;28;20245;-35
2021/05/12 03:00:54;;;;;;;1999.90;999.90;;;;;;;13.62;100.00;-17799.94;5119743;28;20203;-36
2021/05/12 03:03:41;;;;;;;1999.90;999.90;;;;;;;13.78;100.00;-17826.78;5119824;28;20298;-39
2021/05/12 03:06:28;;;;;;;1999.90;999.90;;;;;;;13.89;100.00;-17761.25;5119566;28;20257;-34
2021/05/12 03:09:14;;;;;;;1999.90;999.90;;;;;;;13.60;100.00;-17917.97;5119288;28;20253;-35
2021/05/12 03:12:01;;;;;;;1999.90;999.90;;;;;;;13.95;100.00;-18279.72;5119411;28;20571;-36
2021/05/12 03:14:47;;;;;;;1999.90;999.90;;;;;;;13.86;100.00;-18277.31;5119207;28;20222;-36
2021/05/12 03:17:34;;;;;;;1999.90;999.90;;;;;;;14.00;100.00;-18281.03;5119152;28;20324;-37
2021/05/12 03:20:23;;;;;;;1999.90;999.90;;;;;;;13.70;100.00;-18273.16;5119345;28;20248;-34
2021/05/12 03:23:09;;;;;;;1999.90;999.90;;;;;;;13.59;100.00;-18270.09;5119625;28;20199;-34
2021/05/12 03:25:56;;;;;;;1999.90;999.90;;;;;;;13.93;100.00;-18279.16;5118744;28;20295;-35
2021/05/12 03:28:43;;;;;;;1999.90;999.90;;;;;;;13.53;100.00;-18268.50;5119233;28;20198;-34
2021/05/12 03:31:31;;;;;;;1999.90;999.90;;;;;;;13.65;100.00;-18271.84;5119403;28;20209;-34
2021/05/12 03:34:17;;;;;;;1999.90;999.90;;;;;;;13.51;100.00;-18267.97;5118536;28;20716;-36
2021/05/12 03:37:04;;;;;;;1999.90;999.90;;;;;;;13.49;100.00;-18121.78;5119254;28;20237;-34
2021/05/12 03:39:50;;;;;;;1999.90;999.90;;;;;;;13.63;100.00;-18271.31;5118929;28;20198;-35
2021/05/12 03:42:36;;;;;;;1999.90;999.90;;;;;;;13.40;100.00;-18112.13;5118800;28;20198;-36
2021/05/12 03:45:23;;;;;;;1999.90;999.90;;;;;;;13.73;100.00;-18193.88;5118398;28;20348;-35
2021/05/12 03:48:10;;;;;;;1999.90;999.90;;;;;;;14.07;100.00;-18282.91;5118915;28;20202;-33
2021/05/12 03:50:59;;;;;;;1999.90;999.90;;;;;;;13.95;100.00;-18279.56;5118387;28;20209;-36
2021/05/12 03:53:45;;;;;;;1999.90;999.90;;;;;;;13.82;100.00;-18276.22;5118628;28;20198;-36
2021/05/12 03:56:33;;;;;;;1999.90;999.90;;;;;;;13.77;100.00;-18275.03;5118387;28;20263;-34
2021/05/12 03:59:21;;;;;;;1999.90;999.90;;;;;;;13.70;100.00;-18273.16;5117956;28;20194;-38
2021/05/12 04:02:08;;;;;;;1999.90;999.90;;;;;;;13.74;100.00;-18274.25;5118360;28;20195;-38
2021/05/12 04:04:59;;;;;;;1999.90;999.90;;;;;;;13.85;100.00;-18276.91;5118484;28;20198;-34
2021/05/12 04:07:45;;;;;;;1999.90;999.90;;;;;;;13.68;100.00;-18272.63;5118240;28;20317;-37
2021/05/12 04:10:32;;;;;;;1999.90;999.90;;;;;;;13.60;100.00;-18270.50;5118290;28;20592;-34
2021/05/12 04:13:19;;;;;;;1999.90;999.90;;;;;;;13.89;100.00;-18277.97;5117846;28;20242;-36
2021/05/12 04:16:05;;;;;;;1999.90;999.90;;;;;;;13.60;100.00;-18270.38;5118050;28;20295;-35
2021/05/12 04:18:58;;;;;;;1999.90;999.90;;;;;;;13.57;100.00;-18269.56;5117492;28;20199;-33
2021/05/12 04:21:45;;;;;;;1999.90;999.90;;;;;;;13.69;100.00;-18272.91;5117673;28;20190;-33
2021/05/12 04:24:32;;;;;;;1999.90;999.90;;;;;;;13.84;100.00;-18276.78;5118316;28;20190;-37
2021/05/12 04:27:21;;;;;;;1999.90;999.90;;;;;;;13.93;100.00;-18279.03;5117775;28;20287;-34
2021/05/12 04:30:12;;;;;;;1999.90;999.90;;;;;;;13.89;100.00;-18277.97;5117531;28;20207;-37
2021/05/12 04:33:00;;;;;;;1999.90;999.90;;;;;;;13.53;100.00;-18268.63;5117675;28;20218;-35
2021/05/12 04:35:48;;;;;;;1999.90;999.90;;;;;;;13.43;100.00;-18265.97;5117656;28;20225;-36
2021/05/12 04:38:35;;;;;;;1999.90;999.90;;;;;;;13.63;100.00;-18271.16;5118002;28;20242;-36
2021/05/12 04:41:23;;;;;;;1999.90;999.90;;;;;;;13.70;100.00;-18273.03;5117514;28;20291;-35
2021/05/12 04:44:09;;;;;;;1999.90;999.90;;;;;;;13.93;100.00;-18279.03;5117609;28;20218;-34
2021/05/12 04:46:58;;;;;;;1999.90;999.90;;;;;;;13.74;100.00;-18274.25;5117489;28;20199;-38
2021/05/12 04:49:45;;;;;;;1999.90;999.90;;;;;;;13.42;100.00;-18265.69;5117642;28;20203;-36
2021/05/12 04:52:33;;;;;;;1999.90;999.90;;;;;;;13.18;100.00;-18259.31;5117727;28;20624;-34
2021/05/12 04:55:19;;;;;;;1999.90;999.90;;;;;;;13.46;100.00;-18266.78;5117312;28;20222;-36
2021/05/12 04:58:08;;;;;;;1999.90;999.90;;;;;;;13.57;100.00;-18269.56;5117477;28;20292;-38
2021/05/12 05:00:55;;;;;;;1999.90;999.90;;;;;;;13.61;100.00;-18270.63;5117263;28;20203;-36
2021/05/12 05:03:43;;;;;;;1999.90;999.90;;;;;;;13.77;100.00;-18274.91;5117034;28;20354;-38
2021/05/12 05:06:33;;;;;;;1999.90;999.90;;;;;;;13.45;100.00;-18266.63;5116983;28;20194;-40
2021/05/12 05:09:19;;;;;;;1999.90;999.90;;;;;;;13.73;100.00;-18273.84;5116074;28;20210;-35
2021/05/12 05:12:06;;;;;;;1999.90;999.90;;;;;;;13.54;100.00;-18268.91;5115609;28;20226;-36
2021/05/12 05:14:54;;;;;;;1999.90;999.90;;;;;;;13.47;100.00;-18266.91;5116587;28;20222;-36
2021/05/12 05:17:42;;;;;;;1999.90;999.90;;;;;;;13.37;100.00;-18264.50;5117313;28;20210;-36
2021/05/12 05:20:29;;;;;;;1999.90;999.90;;;;;;;13.22;100.00;-18260.50;5116918;28;20512;-36
2021/05/12 05:23:18;;;;;;;1999.90;999.90;;;;;;;13.11;100.00;-18257.69;5116818;28;20198;-33
2021/05/12 05:26:05;;;;;;;1999.90;999.90;;;;;;;13.41;100.00;-18265.44;5117212;28;20194;-38
2021/05/12 05:28:51;;;;;;;1999.90;999.90;;;;;;;13.31;100.00;-18262.91;5116763;28;20259;-33
2021/05/12 05:31:37;;;;;;;1999.90;999.90;;;;;;;13.13;100.00;-18257.97;5116958;28;20198;-36
2021/05/12 05:34:27;;;;;;;1999.90;999.90;;;;;;;13.08;100.00;-18256.91;5117984;28;20350;-35
2021/05/12 05:37:13;;;;;;;1999.90;999.90;;;;;;;13.20;100.00;-18259.97;5120389;28;20650;-34
2021/05/12 05:39:59;;;;;;;1999.90;999.90;;;;;;;13.29;100.00;-18262.22;5121162;28;20241;-38
2021/05/12 05:42:57;;;;;;;1999.90;999.90;;;;;;;13.13;100.00;-18257.97;5121104;28;20202;-33
2021/05/12 05:45:49;;;;;;;1999.90;999.90;;;;;;;13.27;100.00;-18261.69;5110411;28;20191;-36
2021/05/12 05:48:38;;;;;;;1999.90;999.90;;;;;;;13.15;100.00;-18258.50;5100461;28;20203;-35
2021/05/12 05:51:25;;;;;;;1999.90;999.90;;;;;;;13.46;100.00;-18266.78;5099772;28;20199;-38
2021/05/12 05:54:13;;;;;;;1999.90;999.90;;;;;;;13.59;100.00;-18270.22;5103920;28;20518;-38
2021/05/12 05:57:05;;;;;;;1999.90;999.90;;;;;;;13.60;100.00;-18270.50;5120698;28;20203;-37
2021/05/12 05:59:52;;;;;;;1999.90;999.90;;;;;;;13.12;100.00;-18257.81;5120686;28;20199;-36
2021/05/12 06:02:38;;;;;;;1999.90;999.90;;;;;;;13.58;100.00;-18269.97;5120553;28;20514;-38
2021/05/12 06:05:24;;;;;;;1999.90;999.90;;;;;;;13.30;100.00;-18262.50;5120372;28;20199;-38
2021/05/12 06:08:11;;;;;;;1999.90;999.90;;;;;;;13.49;100.00;-18267.44;5120224;28;20332;-38
2021/05/12 06:10:58;;;;;;;1999.90;999.90;;;;;;;13.11;100.00;-18257.56;5120630;28;20195;-35
2021/05/12 06:13:47;;;;;;;1999.90;999.90;;;;;;;13.40;100.00;-18265.16;5119418;28;20316;-35
2021/05/12 06:16:33;;;;;;;1999.90;999.90;;;;;;;13.09;100.00;-18257.16;5120006;28;20230;-33
2021/05/12 06:19:19;;;;;;;1999.90;999.90;;;;;;;14.00;100.00;-18281.03;5120166;28;20300;-34
2021/05/12 06:22:06;;;;;;;1999.90;999.90;;;;;;;13.52;100.00;-18268.25;5119694;28;20706;-35
2021/05/12 06:24:54;;;;;;;1999.90;999.90;;;;;;;14.80;100.00;-18302.09;5119429;28;20603;-40
2021/05/12 06:27:41;;;;;;;1999.90;999.90;;;;;;;14.14;100.00;-18284.63;5108089;28;20195;-35
2021/05/12 06:30:30;;;;;;;1999.90;999.90;;;;;;;13.85;100.00;-18277.03;5119763;28;20616;-40
2021/05/12 06:33:17;;;;;;;1999.90;999.90;;;;;;;14.78;100.00;-18301.56;5119939;28;20273;-37
2021/05/12 06:36:04;;;;;;;1999.90;999.90;;;;;;;15.43;100.00;-18318.59;5120052;28;20284;-34
2021/05/12 06:38:53;;;;;;;1999.90;999.90;;;;;;;15.00;100.00;-18307.16;5120326;28;20253;-34
2021/05/12 06:41:40;;;;;;;1999.90;999.90;;;;;;;14.91;100.00;-18304.91;5118951;28;20260;-34
2021/05/12 06:44:26;;;;;;;1999.90;999.90;;;;;;;14.83;100.00;-18302.91;5119355;28;20211;-36
2021/05/12 06:47:15;;;;;;;1999.90;999.90;;;;;;;15.18;100.00;-18311.81;5119179;28;20198;-37
2021/05/12 06:50:05;;;;;;;1999.90;999.90;;;;;;;16.24;100.00;-18339.66;5119593;28;20199;-35
2021/05/12 06:52:53;;;;;;;1999.90;999.90;;;;;;;15.43;100.00;-18318.59;5118452;28;20197;-34
2021/05/12 06:55:40;;;;;;;1999.90;999.90;;;;;;;15.32;100.00;-18315.69;5112742;28;20239;-36
2021/05/12 06:58:27;;;;;;;1999.90;999.90;;;;;;;14.27;100.00;-18287.97;5119550;28;20248;-33
2021/05/12 07:01:13;;;;;;;1999.90;999.90;;;;;;;13.75;100.00;-18274.38;5119675;28;20596;-34
2021/05/12 07:03:59;;;;;;;1999.90;999.90;;;;;;;14.71;100.00;-18299.56;5119120;28;20340;-34
2021/05/12 07:06:48;;;;;;;1999.90;999.90;;;;;;;14.57;100.00;-18295.84;5119371;28;20326;-39
2021/05/12 07:09:34;;;;;;;1999.90;999.90;;;;;;;14.69;100.00;-18299.03;5119240;28;20256;-34
2021/05/12 07:12:20;;;;;;;1999.90;999.90;;;;;;;14.30;100.00;-18288.78;5118449;28;20233;-34
2021/05/12 07:15:10;;;;;;;1999.90;999.90;;;;;;;14.40;100.00;-18291.56;5118490;28;20336;-34
2021/05/12 07:17:59;;;;;;;1999.90;999.90;;;;;;;14.89;100.00;-18304.38;5118768;28;20324;-34
2021/05/12 07:20:47;;;;;;;1999.90;999.90;;;;;;;15.08;100.00;-18309.41;5118630;28;20203;-34
2021/05/12 07:23:34;;;;;;;1999.90;999.90;;;;;;;16.08;100.00;-18335.53;5118335;28;20453;-33
2021/05/12 07:26:24;;;;;;;1999.90;999.90;;;;;;;16.57;100.00;-18348.28;5117783;28;20191;-33
2021/05/12 07:29:10;;;;;;;1999.90;999.90;;;;;;;17.14;100.00;-18363.31;5116440;28;20580;-36
2021/05/12 07:31:57;;;;;;;1999.90;999.90;;;;;;;17.64;100.00;-18376.34;5118141;28;20275;-35
2021/05/12 07:34:43;;;;;;;1999.90;999.90;;;;;;;16.23;100.00;-18339.50;5117082;28;20190;-35
2021/05/12 07:37:29;;;;;;;1999.90;999.90;;;;;;;16.22;100.00;-18339.25;5117984;28;20198;-36
2021/05/12 07:40:16;;;;;;;1999.90;999.90;;;;;;;16.77;100.00;-18353.75;5118011;28;20204;-36
2021/05/12 07:43:08;;;;;;;1999.90;999.90;;;;;;;15.38;100.00;-18317.28;5117083;28;20272;-34
2021/05/12 07:45:56;;;;;;;1999.90;999.90;;;;;;;14.86;100.00;-18303.56;5118036;28;20241;-36
2021/05/12 07:48:45;;;;;;;1999.90;999.90;;;;;;;16.03;100.00;-18334.31;5118182;28;20655;-34
2021/05/12 07:51:31;;;;;;;1999.90;999.90;;;;;;;16.36;100.00;-18342.84;5117784;28;20208;-35
2021/05/12 07:54:17;;;;;;;1999.90;999.90;;;;;;;16.79;100.00;-18354.28;5118120;28;20200;-36
2021/05/12 07:57:05;;;;;;;1999.90;999.90;;;;;;;16.42;100.00;-18344.44;5115035;28;20331;-35
2021/05/12 07:59:51;;;;;;;1999.90;999.90;;;;;;;16.03;100.00;-18334.31;5116187;28;20204;-33
2021/05/12 08:02:37;;;;;;;1999.90;999.90;;;;;;;16.11;100.00;-18336.31;5116592;28;20204;-34
2021/05/12 08:05:26;;;;;;;1999.90;999.90;;;;;;;16.37;100.00;-18343.09;5116317;28;20705;-34
2021/05/12 08:08:13;;;;;;;1999.90;999.90;;;;;;;16.06;100.00;-18335.13;5116012;28;20198;-32
2021/05/12 08:10:58;;;;;;;1999.90;999.90;;;;;;;14.64;100.00;-18297.69;5115795;28;20680;-34
2021/05/12 08:13:44;;;;;;;1999.90;999.90;;;;;;;15.31;100.00;-18315.41;5116391;28;20244;-35
2021/05/12 08:16:32;;;;;;;1999.90;999.90;;;;;;;15.44;100.00;-18318.88;5116991;28;20639;-34
2021/05/12 08:19:20;;;;;;;1999.90;999.90;;;;;;;15.37;100.00;-18316.88;5108690;28;20220;-33
2021/05/12 08:22:09;;;;;;;1999.90;999.90;;;;;;;15.53;100.00;-18321.13;5116269;28;20664;-35
2021/05/12 08:24:56;;;;;;;1999.90;999.90;;;;;;;15.74;100.00;-18326.59;5116433;28;20199;-35
2021/05/12 08:27:42;;;;;;;1999.90;999.90;;;;;;;15.95;100.00;-18332.06;5116443;28;20345;-37
2021/05/12 08:30:35;;;;;;;1999.90;999.90;;;;;;;16.02;100.00;-18334.06;5116779;28;20201;-35
2021/05/12 08:33:22;;;;;;;1999.90;999.90;;;;;;;16.78;100.00;-18353.88;5116047;28;20601;-35
2021/05/12 08:36:09;;;;;;;1999.90;999.90;;;;;;;16.35;100.00;-18342.56;5115537;28;20363;-35
2021/05/12 08:38:59;;;;;;;1999.90;999.90;;;;;;;16.52;100.00;-18347.22;5115885;28;20255;-38
2021/05/12 08:41:46;;;;;;;1999.90;999.90;;;;;;;16.66;100.00;-18350.69;5115863;28;20197;-35
2021/05/12 08:44:35;;;;;;;1999.90;999.90;;;;;;;16.71;100.00;-18352.16;5116060;28;20198;-36
2021/05/12 08:47:24;;;;;;;1999.90;999.90;;;;;;;16.58;100.00;-18348.69;5115677;28;20252;-39
2021/05/12 08:50:13;;;;;;;1999.90;999.90;;;;;;;17.74;100.00;-18379.00;5114350;28;20504;-37
2021/05/12 08:53:00;;;;;;;1999.90;999.90;;;;;;;17.79;100.00;-18380.34;5114467;28;20292;-39
2021/05/12 08:55:49;;;;;;;1999.90;999.90;;;;;;;18.12;100.00;-18389.09;5115048;28;20226;-39
2021/05/12 08:58:36;;;;;;;1999.90;999.90;;;;;;;16.81;100.00;-18354.69;5106558;28;20303;-36
2021/05/12 09:01:26;;;;;;;1999.90;999.90;;;;;;;17.06;100.00;-18361.19;5115321;28;20208;-36
2021/05/12 09:04:12;;;;;;;1999.90;999.90;;;;;;;17.30;100.00;-18367.56;5115097;28;20205;-36
2021/05/12 09:07:04;;;;;;;1999.90;999.90;;;;;;;16.82;100.00;-18355.06;5114558;28;20683;-35
2021/05/12 09:09:53;;;;;;;1999.90;999.90;;;;;;;16.31;100.00;-18341.63;5114864;28;20612;-37
2021/05/12 09:12:48;;;;;;;1999.90;999.90;;;;;;;17.05;100.00;-18360.94;5115126;28;20342;-37
2021/05/12 09:15:34;;;;;;;1999.90;999.90;;;;;;;18.63;100.00;-18402.38;5114602;28;20481;-39
2021/05/12 09:18:28;;;;;;;1999.90;999.90;;;;;;;18.38;100.00;-18395.88;5115785;28;20298;-36
2021/05/12 09:21:15;;;;;;;1999.90;999.90;;;;;;;18.38;100.00;-18395.75;5115432;28;20208;-38
2021/05/12 09:24:02;;;;;;;1999.90;999.90;;;;;;;20.27;94.12;-18445.38;5114486;28;20787;-39
2021/05/12 09:26:50;;;;;;;1999.90;999.90;;;;;;;18.68;97.22;-18403.72;5115180;28;20200;-35
2021/05/12 09:29:45;;;;;;;1999.90;999.90;;;;;;;18.83;100.00;-18407.56;5114198;28;20504;-35
2021/05/12 09:32:43;;;;;;;1999.90;999.90;;;;;;;17.86;100.00;-18382.19;5115046;28;20213;-32
2021/05/12 09:35:30;;;;;;;1999.90;999.90;;;;;;;19.44;99.01;-18423.63;5114395;28;20199;-38
2021/05/12 09:38:21;;;;;;;1999.90;999.90;;;;;;;18.24;91.36;-18392.28;5114937;28;20495;-35
2021/05/12 09:41:15;;;;;;;1999.90;999.90;;;;;;;18.56;97.42;-18400.53;5113840;28;20226;-39
2021/05/12 09:44:03;;;;;;;1999.90;999.90;;;;;;;19.65;86.49;-18429.06;5114565;28;20628;-34
2021/05/12 09:46:50;;;;;;;1999.90;999.90;;;;;;;20.70;82.66;-18456.38;5113556;28;20212;-33
2021/05/12 09:49:41;;;;;;;1999.90;999.90;;;;;;;19.77;85.51;-18432.09;5114708;28;20199;-36
2021/05/12 09:52:30;;;;;;;1999.90;999.90;;;;;;;18.53;81.12;-18399.84;5114639;28;20210;-33
2021/05/12 09:55:19;;;;;;;1999.90;999.90;;;;;;;19.50;84.15;-18425.06;5113799;28;20217;-35
2021/05/12 09:58:09;;;;;;;1999.90;999.90;;;;;;;19.01;82.03;-18412.34;5114185;28;20592;-34
2021/05/12 10:00:57;;;;;;;1999.90;999.90;;;;;;;19.31;83.21;-18420.16;5114711;28;20197;-37
2021/05/12 10:03:49;;;;;;;1999.90;999.90;;;;;;;19.38;87.67;-18421.88;5116299;28;20198;-37
2021/05/12 10:06:35;;;;;;;1999.90;999.90;;;;;;;20.56;77.11;-18452.91;5116018;28;20604;-37
2021/05/12 10:09:24;;;;;;;1999.90;999.90;;;;;;;18.62;82.40;-18402.13;5115815;28;20208;-35
2021/05/12 10:12:14;;;;;;;1999.90;999.90;;;;;;;18.60;89.32;-18401.59;5116015;28;20264;-37
2021/05/12 10:15:01;;;;;;;1999.90;999.90;;;;;;;19.64;91.90;-18428.78;5115908;28;20207;-34
2021/05/12 10:17:47;;;;;;;1999.90;999.90;;;;;;;18.92;85.98;-18409.94;5115796;28;20235;-34
2021/05/12 10:20:35;;;;;;;1999.90;999.90;;;;;;;18.32;83.67;-18394.28;5117386;28;20361;-35
2021/05/12 10:23:22;;;;;;;1999.90;999.90;;;;;;;18.47;100.00;-18398.13;5119750;28;20199;-37
2021/05/12 10:26:17;;;;;;;1999.90;999.90;;;;;;;18.88;91.19;-18409.03;5117991;28;20561;-36
2021/05/12 10:29:13;;;;;;;1999.90;999.90;;;;;;;18.25;89.22;-18392.56;5119480;28;20605;-40
2021/05/12 10:31:59;;;;;;;1999.90;999.90;;;;;;;16.90;93.20;-18357.06;5119809;28;20319;-39
2021/05/12 10:34:49;;;;;;;1999.90;999.90;;;;;;;19.12;84.04;-18415.13;5118832;28;20198;-38
2021/05/12 10:37:39;;;;;;;1999.90;999.90;;;;;;;19.94;75.89;-18436.63;5118437;28;20258;-36
2021/05/12 10:40:28;;;;;;;1999.90;999.90;;;;;;;19.75;72.44;-18431.72;5119254;28;20194;-34
2021/05/12 10:43:20;;;;;;;1999.90;999.90;;;;;;;20.08;79.26;-18440.19;5119410;28;20509;-35
2021/05/12 10:46:13;;;;;;;1999.90;999.90;;;;;;;19.99;78.23;-18437.81;5118759;28;20205;-38
2021/05/12 10:49:00;;;;;;;1999.90;999.90;;;;;;;19.90;75.80;-18435.69;5118354;28;20195;-36
2021/05/12 10:51:52;;;;;;;1999.90;999.90;;;;;;;19.61;79.44;-18428.00;5117809;28;20213;-36
2021/05/12 10:54:48;;;;;;;1999.90;999.90;;;;;;;18.04;84.51;-18386.97;5117946;28;20226;-37
2021/05/12 10:57:48;;;;;;;1999.90;999.90;;;;;;;18.70;82.85;-18404.25;5109800;28;20223;-37
2021/05/12 11:00:54;;;;;;;1999.90;999.90;;;;;;;18.95;81.17;-18410.63;5118854;28;20210;-37
2021/05/12 11:04:06;;;;;;;1999.90;999.90;;;;;;;17.86;85.49;-18382.19;5118773;28;20210;-36
2021/05/12 11:07:11;;;;;;;1999.90;999.90;;;;;;;18.79;85.91;-18406.50;5106285;28;20315;-36
2021/05/12 11:09:58;;;;;;;1999.90;999.90;;;;;;;18.88;80.95;-18409.03;5118270;28;20211;-38
2021/05/12 11:12:45;;;;;;;1999.90;999.90;;;;;;;19.88;79.31;-18435.03;5118758;28;20670;-32
2021/05/12 11:15:50;;;;;;;1999.90;999.90;;;;;;;20.26;72.72;-18445.09;5118289;28;20201;-36
2021/05/12 11:18:52;;;;;;;1999.90;999.90;;;;;;;20.00;73.08;-18438.06;5118243;28;20198;-35
2021/05/12 11:21:42;;;;;;;1999.90;999.90;;;;;;;19.53;74.69;-18425.88;5118232;28;20218;-35
2021/05/12 11:24:47;;;;;;;1999.90;999.90;;;;;;;20.21;76.00;-18443.78;5118348;28;20453;-36
2021/05/12 11:28:00;;;;;;;1999.90;999.90;;;;;;;20.30;69.63;-18446.16;5117798;28;20312;-37
2021/05/12 11:33:53;;;;;;;1999.90;999.90;;;;;;;21.96;70.53;-18489.34;5117269;28;20283;-36
2021/05/12 11:36:41;;;;;;;1999.90;999.90;;;;;;;21.66;64.10;-18481.53;5118224;28;20230;-38
2021/05/12 11:39:30;;;;;;;1999.90;999.90;;;;;;;21.18;64.69;-18468.94;5117843;28;20336;-34
2021/05/12 11:42:21;;;;;;;1999.90;999.90;;;;;;;20.66;64.54;-18455.31;5117251;28;20202;-37
2021/05/12 11:45:13;;;;;;;1999.90;999.90;;;;;;;20.90;65.07;-18461.78;5104593;28;20203;-37
2021/05/12 11:48:02;;;;;;;1999.90;999.90;;;;;;;21.21;64.66;-18469.88;5097440;28;20203;-38
2021/05/12 11:50:51;;;;;;;1999.90;999.90;;;;;;;19.74;73.09;-18431.44;5098007;28;20682;-39
2021/05/12 11:53:45;;;;;;;1999.90;999.90;;;;;;;19.67;72.89;-18429.44;5097469;28;20200;-35
2021/05/12 11:56:34;;;;;;;1999.90;999.90;;;;;;;20.88;72.11;-18461.25;5096942;28;20231;-35
2021/05/12 11:59:23;;;;;;;1999.90;999.90;;;;;;;20.51;65.45;-18451.47;5097334;28;20297;-37
2021/05/12 12:02:13;;;;;;;1999.90;999.90;;;;;;;20.86;58.27;-18460.72;5097011;28;20316;-38
2021/05/12 12:05:09;;;;;;;1999.90;999.90;;;;;;;20.45;63.30;-18449.88;5097366;28;20326;-34
2021/05/12 12:08:09;;;;;;;1999.90;999.90;;;;;;;20.13;67.54;-18441.66;5097565;28;20292;-35
2021/05/12 12:11:05;;;;;;;1999.90;999.90;;;;;;;19.84;68.18;-18433.97;5097740;28;20199;-38
2021/05/12 12:13:58;;;;;;;1999.90;999.90;;;;;;;18.98;70.21;-18411.41;5096695;28;20235;-37
2021/05/12 12:16:48;;;;;;;1999.90;999.90;;;;;;;19.45;71.18;-18423.75;5096755;28;20227;-37
2021/05/12 12:19:36;;;;;;;1999.90;999.90;;;;;;;18.57;79.58;-18400.78;5096518;28;20210;-37